Time;durP1;ratioP1;P1;durP2;ratioP2;P2;SDS_P1;SDS_P2;PMS_P1;PMS_P2;Temp;Humidity;BMP_temperature;BMP_pressure;BME280_temperature;BME280_humidity;BME280_pressure;Samples;Min_cycle;Max_cycle;Signal;HPM_P1;HPM_P2
2022/06/03 00:00:07;;;;;;;15.73;13.88;;;;;;;11.05;66.25;101657.53;7394421;19;20018;-69
2022/06/03 00:03:11;;;;;;;22.70;16.60;;;;;;;11.03;66.38;101659.28;7395024;19;20027;-69
2022/06/03 00:05:57;;;;;;;26.80;20.52;;;;;;;10.97;66.47;101659.34;7393513;19;20014;-68
2022/06/03 00:08:59;;;;;;;28.23;21.77;;;;;;;10.91;66.69;101655.03;7394877;19;20018;-68
2022/06/03 00:12:07;;;;;;;25.83;18.60;;;;;;;10.84;66.86;101659.47;7391321;19;20010;-69
2022/06/03 00:14:52;;;;;;;27.25;18.65;;;;;;;10.79;66.78;101660.38;7392153;19;20015;-69
2022/06/03 00:17:42;;;;;;;22.42;17.05;;;;;;;10.74;67.05;101653.41;7392358;19;20035;-69
2022/06/03 00:20:23;;;;;;;23.35;16.73;;;;;;;10.72;67.00;101654.31;7393850;19;20027;-69
2022/06/03 00:23:08;;;;;;;19.20;14.65;;;;;;;10.68;67.25;101650.84;7394583;19;20025;-69
2022/06/03 00:26:13;;;;;;;18.30;13.98;;;;;;;10.65;67.43;101653.47;7393129;19;20021;-68
2022/06/03 00:29:07;;;;;;;16.60;14.02;;;;;;;10.59;67.61;101656.16;7394390;19;20015;-69
2022/06/03 00:31:57;;;;;;;19.23;13.52;;;;;;;10.55;67.67;101657.03;7391967;19;20029;-68
2022/06/03 00:34:47;;;;;;;17.80;14.43;;;;;;;10.50;67.76;101657.09;7393625;19;20608;-68
2022/06/03 00:37:31;;;;;;;22.15;17.30;;;;;;;10.45;67.80;101656.25;7391674;19;20082;-68
2022/06/03 00:40:21;;;;;;;21.48;17.33;;;;;;;10.38;67.92;101655.41;7398098;19;20387;-68
2022/06/03 00:43:11;;;;;;;20.40;16.85;;;;;;;10.34;68.07;101655.44;7398877;19;20026;-69
2022/06/03 00:46:08;;;;;;;19.08;14.35;;;;;;;10.28;68.19;101644.06;7400689;19;20086;-68
2022/06/03 00:48:55;;;;;;;18.00;13.35;;;;;;;10.25;68.25;101649.34;7400821;19;20023;-68
2022/06/03 00:51:43;;;;;;;18.23;13.55;;;;;;;10.18;68.28;101644.13;7397806;19;20074;-68
2022/06/03 00:54:41;;;;;;;18.52;13.38;;;;;;;10.17;68.51;101642.41;7401178;19;20028;-68
2022/06/03 00:57:26;;;;;;;14.70;13.07;;;;;;;10.13;68.59;101648.53;7396972;19;20082;-69
2022/06/03 01:00:07;;;;;;;15.68;13.27;;;;;;;10.07;68.62;101645.06;7398354;19;20083;-68
2022/06/03 01:03:04;;;;;;;16.23;13.00;;;;;;;10.04;68.88;101647.69;7397556;19;20351;-68
2022/06/03 01:05:43;;;;;;;15.65;12.52;;;;;;;10.01;68.92;101650.34;7399797;19;20018;-68
2022/06/03 01:08:17;;;;;;;14.07;11.98;;;;;;;9.99;69.12;101646.84;7400734;19;20026;-68
2022/06/03 01:11:04;;;;;;;12.95;11.32;;;;;;;9.95;69.16;101646.00;7398111;19;20078;-68
2022/06/03 01:13:50;;;;;;;13.75;12.10;;;;;;;9.91;69.48;101651.28;7398690;19;20025;-68
2022/06/03 01:16:34;;;;;;;13.43;10.55;;;;;;;9.87;69.51;101652.16;7397574;19;20040;-68
2022/06/03 01:19:22;;;;;;;14.02;11.77;;;;;;;9.82;69.66;101652.19;7397902;19;20077;-68
2022/06/03 01:22:01;;;;;;;12.70;10.20;;;;;;;9.77;69.78;101656.56;7397611;19;20018;-68
2022/06/03 01:25:04;;;;;;;11.70;8.43;;;;;;;9.72;69.84;101655.72;7400057;19;20023;-68
2022/06/03 01:27:55;;;;;;;9.27;8.05;;;;;;;9.68;69.73;101651.34;7398755;19;20331;-68
2022/06/03 01:30:26;;;;;;;9.77;8.07;;;;;;;9.61;70.04;101653.97;7396369;19;20090;-69
2022/06/03 01:33:22;;;;;;;8.40;7.60;;;;;;;9.59;70.19;101652.25;7397396;19;20037;-68
2022/06/03 01:36:20;;;;;;;8.70;7.82;;;;;;;9.52;70.19;101653.16;7398900;19;20082;-68
2022/06/03 01:39:27;;;;;;;9.38;8.05;;;;;;;9.47;70.39;101655.78;7397110;19;20019;-68
2022/06/03 01:42:37;;;;;;;8.30;7.32;;;;;;;9.41;70.49;101647.94;7396784;19;20086;-68
2022/06/03 01:45:21;;;;;;;13.15;8.95;;;;;;;9.35;70.52;101638.38;7396520;19;20019;-68
2022/06/03 01:48:13;;;;;;;9.60;8.60;;;;;;;9.31;70.42;101636.59;7397197;19;20027;-68
2022/06/03 01:51:00;;;;;;;9.45;8.50;;;;;;;9.28;70.42;101642.72;7394051;19;20485;-68
2022/06/03 01:53:47;;;;;;;8.73;7.55;;;;;;;9.24;70.65;101646.22;7397022;19;20023;-68
2022/06/03 01:56:39;;;;;;;9.20;7.97;;;;;;;9.20;70.97;101646.22;7397331;19;20018;-68
2022/06/03 01:59:45;;;;;;;11.30;9.15;;;;;;;9.17;70.80;101638.38;7398611;19;20031;-68
2022/06/03 02:02:53;;;;;;;10.60;8.77;;;;;;;9.13;70.82;101633.13;7393791;19;20011;-69
2022/06/03 02:05:42;;;;;;;11.70;10.35;;;;;;;9.11;70.68;101628.78;7392858;19;20035;-68
2022/06/03 02:08:36;;;;;;;15.07;10.85;;;;;;;9.09;70.97;101635.78;7395764;19;20372;-68
2022/06/03 02:11:28;;;;;;;14.18;11.20;;;;;;;9.07;70.84;101634.91;7395554;19;20491;-68
2022/06/03 02:14:27;;;;;;;13.57;11.38;;;;;;;9.04;71.13;101634.91;7398149;19;20560;-68
2022/06/03 02:17:20;;;;;;;12.45;10.25;;;;;;;9.00;71.14;101641.00;7398294;19;20433;-68
2022/06/03 02:20:11;;;;;;;11.70;9.35;;;;;;;8.97;71.32;101628.78;7401234;19;20015;-69
2022/06/03 02:23:11;;;;;;;11.55;8.82;;;;;;;8.95;71.39;101630.56;7398195;19;20119;-69
2022/06/03 02:25:59;;;;;;;12.60;10.80;;;;;;;8.89;71.36;101636.66;7396640;19;20036;-68
2022/06/03 02:30:24;;;;;;;16.73;13.60;;;;;;;8.88;71.66;101637.53;7396019;19;20026;-68
2022/06/03 02:31:53;;;;;;;17.70;14.73;;;;;;;8.83;71.69;101634.03;7396877;19;20367;-68
2022/06/03 02:34:44;;;;;;;13.35;11.48;;;;;;;8.79;71.88;101637.53;7394794;19;20018;-68
2022/06/03 02:37:50;;;;;;;15.02;13.35;;;;;;;8.75;72.00;101628.81;7394168;19;20026;-67
2022/06/03 02:41:04;;;;;;;16.65;13.50;;;;;;;8.73;71.95;101633.19;7395548;19;20035;-68
2022/06/03 02:43:56;;;;;;;16.92;13.90;;;;;;;8.71;71.81;101621.84;7394705;19;20077;-68
2022/06/03 02:46:52;;;;;;;15.60;12.85;;;;;;;8.69;71.97;101620.09;7394811;19;20031;-68
2022/06/03 02:49:53;;;;;;;14.60;12.73;;;;;;;8.67;72.10;101627.06;7396850;19;20368;-69
2022/06/03 02:53:06;;;;;;;9.63;8.70;;;;;;;8.64;72.31;101623.59;7394243;19;20018;-69
2022/06/03 02:55:59;;;;;;;8.07;6.35;;;;;;;8.61;72.14;101627.94;7396554;19;20396;-68
2022/06/03 02:58:51;;;;;;;8.02;5.30;;;;;;;8.57;72.34;101627.06;7395526;19;20598;-68
2022/06/03 03:01:48;;;;;;;5.97;5.00;;;;;;;8.50;72.63;101625.31;7396223;19;20022;-68
2022/06/03 03:04:45;;;;;;;6.55;5.35;;;;;;;8.50;72.59;101635.78;7394604;19;20026;-68
2022/06/03 03:07:49;;;;;;;5.07;4.57;;;;;;;8.45;72.66;101632.25;7394288;19;20477;-68
2022/06/03 03:10:34;;;;;;;5.30;4.80;;;;;;;8.42;72.58;101632.25;7394728;19;20025;-68
2022/06/03 03:13:32;;;;;;;5.60;4.70;;;;;;;8.39;72.78;101643.59;7394143;19;20419;-68
2022/06/03 03:16:19;;;;;;;6.00;5.50;;;;;;;8.38;73.00;101638.34;7396148;19;20015;-68
2022/06/03 03:19:15;;;;;;;6.53;5.10;;;;;;;8.34;73.00;101650.56;7395446;19;20489;-68
2022/06/03 03:22:13;;;;;;;6.97;4.90;;;;;;;8.31;73.16;101654.03;7394922;19;20028;-68
2022/06/03 03:25:15;;;;;;;5.30;4.82;;;;;;;8.30;72.94;101649.66;7393176;19;20031;-68
2022/06/03 03:28:05;;;;;;;5.75;5.15;;;;;;;8.28;73.50;101646.16;7394077;19;20027;-68
2022/06/03 03:30:43;;;;;;;5.47;4.93;;;;;;;8.25;72.96;101646.19;7395793;19;20015;-68
2022/06/03 03:33:29;;;;;;;7.88;4.75;;;;;;;8.22;72.99;101646.16;7394165;19;20031;-68
2022/06/03 03:36:27;;;;;;;11.80;5.63;;;;;;;8.21;73.35;101639.16;7394956;19;20018;-68
2022/06/03 03:39:33;;;;;;;6.00;5.38;;;;;;;8.18;73.17;101639.19;7393308;19;20014;-69
2022/06/03 03:42:34;;;;;;;5.70;5.20;;;;;;;8.17;73.31;101634.81;7394811;19;20031;-68
2022/06/03 03:45:38;;;;;;;5.35;4.88;;;;;;;8.14;73.58;101633.06;7393038;19;20010;-68
2022/06/03 03:48:40;;;;;;;6.00;4.88;;;;;;;8.11;73.52;101635.69;7394626;19;20019;-68
2022/06/03 03:51:26;;;;;;;6.57;5.93;;;;;;;8.12;73.55;101641.78;7394261;19;20508;-68
2022/06/03 03:54:21;;;;;;;7.30;5.75;;;;;;;8.13;73.39;101641.78;7394708;19;20019;-68
2022/06/03 03:57:19;;;;;;;6.45;5.60;;;;;;;8.14;73.68;101646.13;7392871;19;20011;-69
2022/06/03 04:00:23;;;;;;;6.30;5.70;;;;;;;8.14;73.74;101647.88;7392614;19;20015;-68
2022/06/03 04:03:12;;;;;;;6.30;5.70;;;;;;;8.16;73.47;101646.13;7393555;19;20018;-68
2022/06/03 04:06:10;;;;;;;6.57;5.97;;;;;;;8.20;73.58;101649.63;7392690;19;20491;-68
2022/06/03 04:09:06;;;;;;;6.10;5.50;;;;;;;8.23;73.35;101660.97;7393631;19;20509;-68
2022/06/03 04:12:09;;;;;;;6.57;5.88;;;;;;;8.26;73.67;101655.72;7393517;19;20027;-68
2022/06/03 04:15:12;;;;;;;8.75;6.90;;;;;;;8.29;73.79;101658.38;7401211;19;20018;-68
2022/06/03 04:18:00;;;;;;;9.50;6.32;;;;;;;8.33;73.44;101664.50;7402414;19;20022;-68
2022/06/03 04:20:47;;;;;;;6.30;5.50;;;;;;;8.38;73.57;101656.63;7398844;19;20017;-68
2022/06/03 04:24:06;;;;;;;7.03;6.32;;;;;;;8.44;73.93;101659.25;7399468;19;20022;-68
2022/06/03 04:27:19;;;;;;;7.55;6.82;;;;;;;8.50;73.77;101656.69;7397528;19;20448;-67
2022/06/03 04:30:20;;;;;;;6.88;6.18;;;;;;;8.57;73.71;101650.63;7394896;19;20090;-67
2022/06/03 04:33:18;;;;;;;7.63;6.75;;;;;;;8.63;73.73;101654.97;7398747;19;20486;-69
2022/06/03 04:36:46;;;;;;;9.10;7.78;;;;;;;8.68;73.91;101655.88;7400017;19;20045;-69
2022/06/03 04:39:44;;;;;;;8.43;7.55;;;;;;;8.76;73.67;101650.63;7398840;19;20380;-68
2022/06/03 04:42:49;;;;;;;8.98;7.97;;;;;;;8.83;73.76;101654.97;7397847;19;20018;-67
2022/06/03 04:45:47;;;;;;;8.55;7.70;;;;;;;8.91;73.96;101654.97;7399992;19;20019;-67
2022/06/03 04:48:44;;;;;;;8.57;7.53;;;;;;;9.00;74.02;101661.94;7399891;19;20018;-67
2022/06/03 04:51:43;;;;;;;8.77;8.00;;;;;;;9.06;73.82;101654.97;7397876;19;20022;-68
2022/06/03 04:54:44;;;;;;;10.75;9.15;;;;;;;9.13;73.79;101658.47;7400893;19;20022;-68
2022/06/03 04:57:58;;;;;;;9.45;8.18;;;;;;;9.21;73.70;101661.97;7396712;19;20022;-67
2022/06/03 05:00:46;;;;;;;8.40;7.55;;;;;;;9.30;73.56;101661.03;7395990;19;20044;-67
2022/06/03 05:03:51;;;;;;;8.95;7.68;;;;;;;9.39;73.65;101662.78;7397242;19;20037;-67
2022/06/03 05:07:02;;;;;;;8.67;7.57;;;;;;;9.48;73.53;101668.00;7396788;19;20078;-68
2022/06/03 05:10:08;;;;;;;10.85;9.63;;;;;;;9.59;73.30;101667.97;7396212;19;20018;-69
2022/06/03 05:13:15;;;;;;;10.35;9.23;;;;;;;9.68;73.05;101665.34;7396226;19;20489;-67
2022/06/03 05:16:28;;;;;;;12.07;10.93;;;;;;;9.78;72.80;101667.03;7398379;19;20032;-68
2022/06/03 05:19:27;;;;;;;12.75;11.25;;;;;;;9.89;72.63;101664.38;7394050;19;20018;-68
2022/06/03 05:22:34;;;;;;;35.83;16.65;;;;;;;10.00;72.42;101666.94;7395279;19;20034;-68
2022/06/03 05:25:32;;;;;;;13.93;12.52;;;;;;;10.11;72.14;101661.66;7392644;19;20027;-68
2022/06/03 05:28:23;;;;;;;16.33;14.73;;;;;;;10.22;71.83;101661.59;7398136;19;20078;-68
2022/06/03 05:31:24;;;;;;;18.23;16.35;;;;;;;10.31;71.57;101664.16;7395851;19;20014;-68
2022/06/03 05:34:22;;;;;;;18.35;16.45;;;;;;;10.42;71.35;101667.63;7395225;19;20018;-67
2022/06/03 05:37:26;;;;;;;22.17;19.40;;;;;;;10.55;71.16;101663.19;7393774;19;20368;-67
2022/06/03 05:40:14;;;;;;;25.40;22.75;;;;;;;10.67;70.95;101661.34;7393667;19;20035;-67
2022/06/03 05:43:21;;;;;;;29.30;26.23;;;;;;;10.77;70.89;101663.03;7395386;19;20388;-68
2022/06/03 05:46:17;;;;;;;36.42;32.38;;;;;;;10.89;70.51;101660.31;7397576;19;20018;-68
2022/06/03 05:48:54;;;;;;;31.27;28.05;;;;;;;10.99;70.31;101657.59;7396885;19;20031;-69
2022/06/03 05:51:41;;;;;;;35.53;31.83;;;;;;;11.10;70.09;101653.09;7395547;19;20014;-69
2022/06/03 05:54:21;;;;;;;36.42;32.63;;;;;;;11.21;69.93;101659.13;7395871;19;20010;-67
2022/06/03 05:56:56;;;;;;;41.42;32.30;;;;;;;11.32;69.80;101650.25;7395679;19;20533;-67
2022/06/03 05:59:54;;;;;;;61.58;34.83;;;;;;;11.45;69.88;101657.16;7398170;19;20023;-68
2022/06/03 06:02:28;;;;;;;39.05;32.97;;;;;;;11.56;69.64;101651.75;7394579;19;20007;-67
2022/06/03 06:05:03;;;;;;;;;;;;;;;11.68;69.50;101648.13;7399163;19;20010;-68
2022/06/03 06:07:38;;;;;;;38.22;29.20;;;;;;;11.78;69.13;101639.25;7395143;19;19922;-67
2022/06/03 06:10:20;;;;;;;34.53;27.80;;;;;;;11.90;68.93;101640.84;7397163;19;20018;-67
2022/06/03 06:12:59;;;;;;;28.75;25.85;;;;;;;12.01;68.74;101638.97;7395021;19;20027;-67
2022/06/03 06:16:00;;;;;;;28.48;24.52;;;;;;;12.15;68.58;101643.19;7397337;19;20022;-67
2022/06/03 06:18:40;;;;;;;23.45;21.20;;;;;;;12.26;68.28;101638.63;7394021;19;20502;-67
2022/06/03 06:21:43;;;;;;;20.02;18.00;;;;;;;12.38;68.02;101635.81;7397315;19;20025;-67
2022/06/03 06:24:16;;;;;;;15.68;14.18;;;;;;;12.54;67.29;101633.81;7392046;19;20457;-67
2022/06/03 06:27:16;;;;;;;13.45;12.25;;;;;;;12.70;66.48;101623.03;7395346;19;20470;-67
2022/06/03 06:30:08;;;;;;;13.93;12.38;;;;;;;12.84;66.08;101618.41;7397270;19;20010;-68
2022/06/03 06:32:47;;;;;;;13.07;11.85;;;;;;;12.98;65.42;101618.16;7394869;19;20010;-68
2022/06/03 06:36:00;;;;;;;11.98;10.80;;;;;;;13.14;64.95;101610.88;7394954;19;20477;-67
2022/06/03 06:38:45;;;;;;;11.18;10.18;;;;;;;13.29;64.56;101612.31;7395250;19;20412;-67
2022/06/03 06:41:28;;;;;;;11.38;10.27;;;;;;;13.43;64.08;101609.44;7396572;19;20481;-68
2022/06/03 06:44:07;;;;;;;11.35;10.25;;;;;;;13.58;63.56;101602.13;7395394;19;20018;-68
2022/06/03 06:46:44;;;;;;;11.30;9.43;;;;;;;13.73;62.81;101595.69;7395336;19;20018;-68
2022/06/03 06:49:23;;;;;;;8.75;7.93;;;;;;;13.89;61.70;101601.47;7394629;19;20006;-68
2022/06/03 06:52:06;;;;;;;9.68;8.77;;;;;;;14.02;60.99;101593.25;7396232;19;20493;-68
2022/06/03 06:54:52;;;;;;;10.52;9.25;;;;;;;14.17;60.82;101597.31;7395186;19;20014;-68
2022/06/03 06:57:24;;;;;;;8.07;7.25;;;;;;;14.30;60.35;101589.13;7394201;19;20481;-69
2022/06/03 07:00:00;;;;;;;8.75;7.95;;;;;;;14.44;60.09;101586.16;7395398;19;20024;-68
2022/06/03 07:02:34;;;;;;;6.88;6.18;;;;;;;14.57;59.51;101587.59;7394240;19;20010;-67
2022/06/03 07:05:08;;;;;;;5.68;5.18;;;;;;;14.71;58.96;101579.34;7395911;19;20111;-67
2022/06/03 07:07:42;;;;;;;6.22;5.43;;;;;;;14.85;58.34;101584.28;7394176;19;20015;-70
2022/06/03 07:10:18;;;;;;;3.88;3.58;;;;;;;14.97;56.56;101583.94;7395530;19;20354;-67
2022/06/03 07:13:04;;;;;;;3.97;3.58;;;;;;;15.13;56.77;101588.81;7396135;19;20010;-67
2022/06/03 07:15:56;;;;;;;3.83;2.67;;;;;;;15.28;55.44;101585.75;7394263;19;20015;-67
2022/06/03 07:21:32;;;;;;;12.07;3.40;;;;;;;15.57;54.16;101580.50;7395031;19;20019;-68
2022/06/03 07:24:08;;;;;;;4.82;3.03;;;;;;;15.70;54.93;101573.09;7393132;19;20481;-67
2022/06/03 07:26:42;;;;;;;4.22;2.40;;;;;;;15.80;54.54;101575.41;7393145;19;20022;-67
2022/06/03 07:29:15;;;;;;;6.25;2.25;;;;;;;15.91;53.82;101558.38;7393541;19;20022;-67
2022/06/03 07:31:51;;;;;;;3.83;2.10;;;;;;;16.01;54.00;101565.13;7393584;19;20019;-68
2022/06/03 07:34:25;;;;;;;7.88;2.40;;;;;;;16.12;53.23;101556.84;7394965;19;20018;-68
2022/06/03 07:37:00;;;;;;;5.22;2.20;;;;;;;16.23;52.14;101564.44;7393192;19;20055;-69
2022/06/03 07:39:53;;;;;;;4.18;2.05;;;;;;;16.32;51.88;101564.13;7395053;19;20019;-68
2022/06/03 07:42:34;;;;;;;1.93;1.70;;;;;;;16.42;51.37;101559.41;7395202;19;20383;-68
2022/06/03 07:45:15;;;;;;;8.18;2.97;;;;;;;16.50;51.77;101545.91;7393521;19;20027;-68
2022/06/03 07:47:44;;;;;;;17.73;2.50;;;;;;;16.58;51.42;101557.09;7390009;19;20015;-68
2022/06/03 07:50:21;;;;;;;9.88;1.90;;;;;;;16.65;50.94;101545.38;7394598;19;20379;-69
2022/06/03 07:52:54;;;;;;;2.88;1.60;;;;;;;16.74;50.80;101555.66;7395036;19;20019;-67
2022/06/03 07:55:26;;;;;;;3.97;2.07;;;;;;;16.83;50.80;101549.16;7392082;19;20480;-68
2022/06/03 07:58:04;;;;;;;2.47;1.55;;;;;;;16.92;50.00;101545.34;7393938;19;20032;-67
2022/06/03 08:00:36;;;;;;;3.15;2.40;;;;;;;17.00;49.21;101553.06;7393024;19;20031;-68
2022/06/03 08:03:08;;;;;;;4.22;1.80;;;;;;;17.06;48.47;101545.72;7393215;19;20078;-68
2022/06/03 08:05:37;;;;;;;2.88;1.58;;;;;;;17.15;47.45;101541.00;7393032;19;20036;-68
2022/06/03 08:11:01;;;;;;;12.73;2.40;;;;;;;17.32;47.62;101537.75;7394742;19;20006;-68
2022/06/03 08:13:49;;;;;;;11.40;2.67;;;;;;;17.41;46.62;101538.25;7394427;19;20011;-69
2022/06/03 08:16:26;;;;;;;2.35;1.60;;;;;;;17.51;46.12;101537.91;7392538;19;20018;-70
2022/06/03 08:18:59;;;;;;;1.63;1.50;;;;;;;17.60;45.23;101534.88;7392376;19;20086;-68
2022/06/03 08:21:32;;;;;;;3.55;2.15;;;;;;;17.69;45.65;101526.59;7393650;19;20027;-68
2022/06/03 08:24:01;;;;;;;;;;;;;;;17.74;44.43;101537.88;7391608;19;20010;-67
2022/06/03 08:26:31;;;;;;;1.88;1.60;;;;;;;17.81;45.59;101533.19;7390375;19;19918;-68
2022/06/03 08:29:12;;;;;;;2.17;1.65;;;;;;;17.88;42.69;101541.75;7390250;19;20024;-68
2022/06/03 08:31:41;;;;;;;2.65;1.50;;;;;;;17.92;43.93;101536.28;7390295;19;20018;-68
2022/06/03 08:34:16;;;;;;;3.65;1.70;;;;;;;18.01;43.20;101536.88;7389838;19;20088;-68
2022/06/03 08:36:45;;;;;;;1.77;1.25;;;;;;;18.11;43.09;101542.66;7390530;19;20019;-67
2022/06/03 08:39:19;;;;;;;5.43;1.42;;;;;;;18.22;42.92;101532.47;7390240;19;20371;-67
2022/06/03 08:41:59;;;;;;;2.00;1.27;;;;;;;18.31;42.86;101532.09;7391464;19;20434;-67
2022/06/03 08:45:10;;;;;;;2.67;1.30;;;;;;;18.40;41.43;101525.53;7390247;19;20015;-72
2022/06/03 08:47:41;;;;;;;1.30;1.20;;;;;;;18.46;42.48;101527.91;7389668;19;20099;-68
2022/06/03 08:50:15;;;;;;;1.77;1.38;;;;;;;18.53;41.37;101532.03;7392892;19;20022;-68
2022/06/03 08:52:53;;;;;;;5.65;1.48;;;;;;;18.60;41.95;101522.00;7392747;19;20079;-67
2022/06/03 08:55:34;;;;;;;1.73;1.40;;;;;;;18.67;41.07;101519.97;7389674;19;20014;-68
2022/06/03 08:58:08;;;;;;;2.88;1.42;;;;;;;18.73;41.34;101515.25;7389586;19;20027;-68
2022/06/03 09:00:53;;;;;;;2.10;1.77;;;;;;;18.83;40.67;101521.03;7396233;19;20015;-67
2022/06/03 09:03:25;;;;;;;2.45;1.25;;;;;;;18.92;40.61;101513.59;7399056;19;20418;-68
2022/06/03 09:06:00;;;;;;;3.63;1.63;;;;;;;19.00;39.93;101509.66;7398870;19;20022;-68
2022/06/03 09:08:36;;;;;;;4.18;1.48;;;;;;;19.07;40.15;101517.34;7399260;19;20432;-68
2022/06/03 09:11:14;;;;;;;4.32;1.83;;;;;;;19.13;40.36;101509.09;7399204;19;20099;-68
2022/06/03 09:13:50;;;;;;;1.35;1.15;;;;;;;19.20;40.09;101507.91;7398602;19;20014;-68
2022/06/03 09:16:24;;;;;;;3.25;1.13;;;;;;;19.26;39.25;101504.97;7396602;19;20018;-68
2022/06/03 09:18:58;;;;;;;3.40;1.30;;;;;;;19.32;39.63;101503.78;7399338;19;20415;-68
2022/06/03 09:21:31;;;;;;;1.92;1.23;;;;;;;19.37;39.00;101497.34;7399128;19;20011;-68
2022/06/03 09:24:05;;;;;;;2.20;1.80;;;;;;;19.44;39.09;101502.38;7398409;19;20185;-67
2022/06/03 09:26:40;;;;;;;1.30;1.10;;;;;;;19.50;37.82;101502.94;7397446;19;20022;-67
2022/06/03 09:29:11;;;;;;;2.53;1.63;;;;;;;19.58;38.97;101493.75;7399488;19;20031;-68
2022/06/03 09:31:50;;;;;;;4.82;1.65;;;;;;;19.63;38.77;101497.88;7399452;19;20025;-69
2022/06/03 09:34:22;;;;;;;1.73;1.40;;;;;;;19.70;38.60;101486.03;7396610;19;20047;-69
2022/06/03 09:36:52;;;;;;;2.10;1.70;;;;;;;19.76;38.65;101484.84;7396328;19;20029;-68
2022/06/03 09:39:22;;;;;;;1.40;1.30;;;;;;;19.81;38.26;101479.31;7395679;19;20018;-68
2022/06/03 09:41:57;;;;;;;2.28;1.63;;;;;;;19.89;38.46;101481.63;7396477;19;20014;-68
2022/06/03 09:44:28;;;;;;;1.50;1.40;;;;;;;19.97;37.87;101471.47;7394722;19;20545;-67
2022/06/03 09:47:04;;;;;;;1.40;1.30;;;;;;;20.07;37.61;101490.50;7395546;19;20019;-67
2022/06/03 09:49:35;;;;;;;2.45;1.58;;;;;;;20.15;37.50;101475.00;7398750;19;20029;-68
2022/06/03 09:52:07;;;;;;;4.43;1.55;;;;;;;20.21;37.70;101466.69;7396581;19;20010;-68
2022/06/03 09:54:39;;;;;;;1.65;1.38;;;;;;;20.28;37.50;101465.44;7398015;19;20018;-67
2022/06/03 09:57:12;;;;;;;1.83;1.35;;;;;;;20.35;37.27;101466.84;7396379;19;20022;-67
2022/06/03 09:59:46;;;;;;;3.47;1.20;;;;;;;20.44;36.91;101459.31;7395697;19;20026;-68
2022/06/03 10:02:17;;;;;;;1.63;1.30;;;;;;;20.49;36.40;101460.78;7397630;19;20018;-68
2022/06/03 10:04:46;;;;;;;2.30;1.38;;;;;;;20.54;36.02;101455.22;7396578;19;20014;-67
2022/06/03 10:07:14;;;;;;;2.42;1.30;;;;;;;20.58;36.08;101463.94;7395887;19;20019;-67
2022/06/03 10:18:00;;;;;;;1.83;1.70;;;;;;;20.83;36.45;101452.84;7397198;19;20015;-67
2022/06/03 10:20:29;;;;;;;1.55;1.17;;;;;;;20.91;36.40;101455.09;7397210;19;20018;-68
2022/06/03 10:22:59;;;;;;;2.60;1.17;;;;;;;20.98;36.47;101457.34;7396571;19;20015;-68
2022/06/03 10:25:29;;;;;;;2.47;1.70;;;;;;;21.05;36.16;101443.69;7394418;19;20026;-67
2022/06/03 10:27:59;;;;;;;4.13;2.53;;;;;;;21.14;35.93;101445.84;7396669;19;20018;-66
2022/06/03 10:30:30;;;;;;;3.85;1.70;;;;;;;21.21;36.27;101444.56;7394360;19;20027;-66
2022/06/03 10:33:01;;;;;;;2.85;1.83;;;;;;;21.27;35.52;101438.88;7395592;19;20382;-67
2022/06/03 10:35:37;;;;;;;3.70;1.65;;;;;;;21.37;35.76;101443.69;7394927;19;20484;-67
2022/06/03 10:38:07;;;;;;;2.03;1.30;;;;;;;21.44;35.60;101429.06;7393650;19;20019;-66
2022/06/03 10:40:39;;;;;;;4.07;1.90;;;;;;;21.56;36.06;101425.72;7395399;19;20493;-67
2022/06/03 10:43:09;;;;;;;1.63;1.40;;;;;;;21.65;35.79;101427.00;7396612;19;20021;-68
2022/06/03 10:45:40;;;;;;;2.55;1.40;;;;;;;21.76;35.75;101435.25;7394494;19;20098;-67
2022/06/03 10:48:29;;;;;;;2.50;1.25;;;;;;;21.87;35.37;101428.44;7394387;19;20488;-68
2022/06/03 10:51:15;;;;;;;1.50;1.13;;;;;;;21.95;34.54;101421.69;7396896;19;20018;-68
2022/06/03 11:01:54;;;;;;;2.03;1.20;;;;;;;22.28;34.89;101417.09;7396074;19;20502;-67
2022/06/03 11:04:30;;;;;;;2.78;1.30;;;;;;;22.36;34.23;101416.63;7393684;19;20085;-67
2022/06/03 11:07:02;;;;;;;1.83;1.20;;;;;;;22.42;34.03;101409.13;7393107;19;20031;-67
2022/06/03 11:09:31;;;;;;;3.08;1.27;;;;;;;22.48;34.37;101399.84;7393133;19;20025;-67
2022/06/03 11:12:04;;;;;;;3.35;2.38;;;;;;;22.58;33.93;101409.03;7392764;19;20019;-67
2022/06/03 11:14:41;;;;;;;4.72;1.55;;;;;;;22.69;33.97;101407.50;7393560;19;20011;-67
2022/06/03 11:17:14;;;;;;;1.23;1.13;;;;;;;22.77;33.31;101400.72;7391701;19;20043;-67
2022/06/03 11:19:48;;;;;;;5.05;1.67;;;;;;;22.85;33.15;101391.31;7391228;19;20031;-69
2022/06/03 11:22:31;;;;;;;2.13;1.15;;;;;;;22.94;33.20;101380.91;7391030;19;20010;-65
2022/06/03 11:25:04;;;;;;;4.88;1.55;;;;;;;23.08;33.15;101373.81;7392693;19;20054;-67
2022/06/03 11:27:40;;;;;;;2.22;1.50;;;;;;;23.22;33.55;101364.94;7393805;19;20077;-68
2022/06/03 11:30:14;;;;;;;4.65;2.30;;;;;;;23.38;32.59;101356.72;7393006;19;20042;-68
2022/06/03 11:32:47;;;;;;;2.92;1.40;;;;;;;23.55;32.15;101356.47;7393021;19;20025;-68
2022/06/03 11:35:24;;;;;;;;;;;;;;;23.67;31.44;101348.56;7393826;19;20082;-68
2022/06/03 11:37:54;;;;;;;2.58;1.30;;;;;;;23.87;32.19;101349.88;7393156;19;19962;-68
2022/06/03 11:40:29;;;;;;;1.92;1.10;;;;;;;24.07;31.59;101340.50;7392929;19;20014;-68
2022/06/03 11:43:02;;;;;;;10.00;1.70;;;;;;;24.27;31.79;101331.06;7393320;19;20036;-68
2022/06/03 11:45:42;;;;;;;2.30;1.20;;;;;;;24.48;31.22;101323.31;7392527;19;20018;-67
2022/06/03 11:48:18;;;;;;;2.20;1.20;;;;;;;24.70;30.86;101325.34;7391762;19;20027;-68
2022/06/03 11:50:50;;;;;;;3.75;1.08;;;;;;;24.90;30.20;101323.03;7393834;19;20544;-70
2022/06/03 11:53:25;;;;;;;2.15;0.93;;;;;;;25.03;30.05;101312.25;7394895;19;20036;-69
2022/06/03 11:55:57;;;;;;;4.00;1.30;;;;;;;25.19;29.94;101309.28;7393952;19;20022;-68
2022/06/03 11:58:39;;;;;;;2.47;0.90;;;;;;;25.38;29.72;101308.78;7391681;19;20014;-68
2022/06/03 12:01:12;;;;;;;3.53;1.05;;;;;;;25.58;29.67;101307.25;7392487;19;20039;-70
2022/06/03 12:03:51;;;;;;;2.40;1.13;;;;;;;25.72;28.50;101302.63;7394256;19;20014;-68
2022/06/03 12:06:35;;;;;;;3.20;1.33;;;;;;;25.81;28.82;101294.72;7391826;19;20018;-68
2022/06/03 12:09:10;;;;;;;1.52;1.25;;;;;;;25.96;28.81;101294.53;7394146;19;20026;-66
2022/06/03 12:14:34;;;;;;;;;;;;;;;26.27;28.56;101282.19;7395013;19;20006;-67
2022/06/03 12:17:23;;;;;;;1.23;1.02;;;;;;;26.42;27.79;101280.13;7391352;19;19918;-67
2022/06/03 12:19:54;;;;;;;1.85;1.20;;;;;;;26.53;28.36;101264.94;7393852;19;20019;-67
2022/06/03 12:22:41;;;;;;;2.05;1.20;;;;;;;26.62;28.17;101277.66;7390999;19;20014;-67
2022/06/03 12:25:40;;;;;;;1.50;1.05;;;;;;;26.73;27.68;101272.28;7391829;19;20015;-69
2022/06/03 12:28:22;;;;;;;2.72;1.10;;;;;;;26.90;27.47;101268.19;7391642;19;20018;-67
2022/06/03 12:30:54;;;;;;;1.60;0.82;;;;;;;27.05;27.58;101274.13;7393629;19;20021;-68
2022/06/03 12:33:27;;;;;;;3.92;1.23;;;;;;;27.14;27.18;101276.03;7391956;19;20023;-68
2022/06/03 12:36:00;;;;;;;;;;;;;;;27.22;26.95;101269.16;7400114;19;20046;-68
2022/06/03 12:38:56;;;;;;;1.25;1.15;;;;;;;27.28;26.72;101250.63;7400054;19;19975;-68
2022/06/03 12:41:55;;;;;;;3.75;1.40;;;;;;;27.35;26.68;101245.59;7396772;19;20098;-67
2022/06/03 12:44:43;;;;;;;1.58;0.88;;;;;;;27.47;25.56;101246.41;7399556;19;20027;-67
2022/06/03 12:47:46;;;;;;;1.98;1.10;;;;;;;27.59;25.79;101249.91;7396996;19;20038;-68
2022/06/03 12:50:31;;;;;;;2.70;1.10;;;;;;;27.77;26.59;101242.06;7395928;19;20106;-68
2022/06/03 12:53:20;;;;;;;3.05;0.95;;;;;;;27.94;25.48;101235.16;7400107;19;20411;-69
2022/06/03 12:55:57;;;;;;;1.88;1.30;;;;;;;28.11;25.58;101229.16;7399479;19;20078;-67
2022/06/03 12:58:42;;;;;;;2.17;1.00;;;;;;;28.26;25.16;101229.66;7397484;19;20014;-68
2022/06/03 13:01:36;;;;;;;1.67;1.00;;;;;;;28.42;24.50;101229.13;7399570;19;20021;-67
2022/06/03 13:04:50;;;;;;;2.95;1.25;;;;;;;28.57;23.99;101226.03;7399200;19;20552;-67
2022/06/03 13:07:35;;;;;;;1.92;1.13;;;;;;;28.71;24.47;101216.69;7396354;19;20488;-67
2022/06/03 13:10:21;;;;;;;1.35;1.23;;;;;;;28.84;24.26;101217.28;7396780;19;20031;-67
2022/06/03 13:12:54;;;;;;;1.13;0.90;;;;;;;28.98;24.54;101218.69;7396972;19;20016;-68